»·PEaware :: N259DS KSAN-KTUS

N259DS :: KSAN-KTUS

FLIGHT INFORMATION

Flight Status: Arrived
Operator: Privately registered:
United States
More flights under this callsign
Pilot: Pratham R. (19019)
Aircraft: BOEING 737-800
(B738)
More flights by this aircraft type
Origin: KSAN San Diego Intl-Lindbergh
United States
Destination: KTUS Tucson Intl
United States
More flights between these airports :: More routes between these airports
Route: ZZOOO2 IPL J2 GBN DINGO5
File this flight plan on PilotEdge
Remarks: PBN / A1B1C1D1S1S2 DOF / 180929 REG / N806SB EET / KZAB0023 OPR / BOE PER / C RMK / TCAS SIMBRIEF
Altitude:
(Current/Filed)
35,000ft
Speed:
(Current/Filed)
423kts
Departed: 06-Oct-18 07:38 PM
Arrived: 06-Oct-18 08:36 PM
Distance/Time
Traveled:
319nm/0:58
Distance/Time
To Go:
Arrived

Flight Plot

Page will automatically refresh every two minutes.

Flight plan parsing failed; only flown route is shown


Map Options




Map Legend


Flown Route
Filed Route
Departure Airport
Arrival Airport
Navaid (VOR, NDB)
Fix

Horizontal Profiles

Position Reports

Time Latitude Longitude Heading Altitude Ground
Speed
06-Oct-18 19:00 32.733964 -117.183065 105 25ft 0kts
06-Oct-18 19:01 32.733964 -117.183065 105 25ft 0kts
06-Oct-18 19:02 32.733964 -117.183065 105 25ft 0kts
06-Oct-18 19:03 32.733964 -117.183065 105 25ft 0kts
06-Oct-18 19:04 32.733964 -117.183065 105 25ft 0kts
06-Oct-18 19:05 32.733964 -117.183065 105 25ft 0kts
06-Oct-18 19:06 32.733964 -117.183065 105 25ft 0kts
06-Oct-18 19:07 32.733964 -117.183065 105 25ft 0kts
06-Oct-18 19:08 32.733964 -117.183065 105 25ft 0kts
06-Oct-18 19:09 32.733964 -117.183065 105 25ft 0kts
06-Oct-18 19:10 32.733964 -117.183065 105 25ft 0kts
06-Oct-18 19:11 32.733964 -117.183065 105 25ft 0kts
06-Oct-18 19:12 32.733964 -117.183065 105 25ft 0kts
06-Oct-18 19:13 32.733964 -117.183065 105 25ft 0kts
06-Oct-18 19:14 32.733964 -117.183065 105 25ft 0kts
06-Oct-18 19:15 32.733964 -117.183065 105 25ft 0kts
06-Oct-18 19:16 32.733964 -117.183065 105 25ft 0kts
06-Oct-18 19:17 32.733964 -117.183065 105 25ft 0kts
06-Oct-18 19:18 32.733964 -117.183065 105 25ft 0kts
06-Oct-18 19:19 32.733964 -117.183065 105 25ft 0kts
06-Oct-18 19:20 32.733964 -117.183065 105 25ft 0kts
06-Oct-18 19:21 32.733964 -117.183065 105 25ft 0kts
06-Oct-18 19:22 32.733964 -117.183065 105 25ft 0kts
06-Oct-18 19:23 32.733964 -117.183065 105 25ft 0kts
06-Oct-18 19:24 32.733964 -117.183065 105 25ft 0kts
06-Oct-18 19:25 32.733964 -117.183065 105 25ft 0kts
06-Oct-18 19:26 32.733964 -117.183065 105 25ft 0kts
06-Oct-18 19:27 32.733964 -117.183065 105 25ft 0kts
06-Oct-18 19:28 32.733964 -117.183065 105 25ft 0kts
06-Oct-18 19:29 32.733964 -117.183065 105 25ft 0kts
06-Oct-18 19:30 32.733964 -117.183065 105 25ft 0kts
06-Oct-18 19:31 32.733967 -117.183077 105 25ft 1kts
06-Oct-18 19:32 32.734213 -117.183633 130 25ft 2kts
06-Oct-18 19:33 32.734561 -117.183981 144 25ft 0kts
06-Oct-18 19:34 32.734561 -117.183981 143 25ft 0kts
06-Oct-18 19:35 32.734561 -117.183981 143 25ft 0kts
06-Oct-18 19:36 32.734561 -117.183981 144 25ft 0kts
06-Oct-18 19:37 32.733622 -117.183937 179 25ft 8kts
06-Oct-18 19:38 32.732372 -117.180185 102 25ft 18kts
06-Oct-18 19:39 32.730788 -117.175346 151 25ft 12kts
06-Oct-18 19:40 32.733209 -117.188210 285 25ft 150kts
06-Oct-18 19:41 32.750494 -117.246007 286 2081ft 251kts
06-Oct-18 19:42 32.773738 -117.327157 283 6041ft 266kts
06-Oct-18 19:43 32.728153 -117.369919 157 9509ft 297kts
06-Oct-18 19:44 32.674252 -117.284847 130 12049ft 350kts
06-Oct-18 19:45 32.628067 -117.194255 113 15107ft 372kts
06-Oct-18 19:46 32.610095 -117.086875 82 16787ft 422kts
06-Oct-18 19:47 32.611019 -116.955474 83 19564ft 447kts
06-Oct-18 19:48 32.626955 -116.814770 82 21517ft 461kts
06-Oct-18 19:49 32.641156 -116.668379 81 23579ft 475kts
06-Oct-18 19:50 32.653679 -116.538940 81 25685ft 491kts
06-Oct-18 19:51 32.668752 -116.381545 81 27944ft 509kts
06-Oct-18 19:52 32.683798 -116.222322 81 29915ft 526kts
06-Oct-18 19:53 32.699635 -116.052588 81 32537ft 524kts
06-Oct-18 19:54 32.714797 -115.887467 81 34696ft 520kts
06-Oct-18 19:55 32.729981 -115.719858 81 34695ft 514kts
06-Oct-18 19:56 32.744310 -115.559041 81 34697ft 515kts
06-Oct-18 19:57 32.751631 -115.392997 86 34686ft 516kts
06-Oct-18 19:58 32.755235 -115.230095 86 34688ft 516kts
06-Oct-18 19:59 32.759090 -115.065447 88 34698ft 520kts
06-Oct-18 20:00 32.762630 -114.897123 90 34699ft 520kts
06-Oct-18 20:01 32.765780 -114.726107 90 34696ft 521kts
06-Oct-18 20:02 32.768950 -114.557958 90 34694ft 520kts
06-Oct-18 20:03 32.770820 -114.388224 90 34698ft 520kts
06-Oct-18 20:04 32.772310 -114.267605 90 34687ft 521kts
06-Oct-18 20:05 32.774576 -114.096108 89 34705ft 527kts
06-Oct-18 20:06 32.776715 -113.923581 82 34699ft 529kts
06-Oct-18 20:07 32.800111 -113.781172 76 34696ft 529kts
06-Oct-18 20:08 32.830684 -113.590757 79 34730ft 529kts
06-Oct-18 20:09 32.848944 -113.458940 79 34754ft 529kts
06-Oct-18 20:10 32.869878 -113.308256 79 34735ft 529kts
06-Oct-18 20:11 32.896734 -113.114051 80 32794ft 524kts
06-Oct-18 20:12 32.915559 -112.976701 81 29386ft 523kts
06-Oct-18 20:13 32.940894 -112.789667 82 25658ft 517kts
06-Oct-18 20:14 32.940059 -112.658123 103 24482ft 502kts
06-Oct-18 20:15 32.893998 -112.509795 119 24042ft 491kts
06-Oct-18 20:16 32.840569 -112.373420 118 23760ft 489kts
06-Oct-18 20:17 32.786861 -112.234796 119 23771ft 489kts
06-Oct-18 20:18 32.729866 -112.088249 119 23771ft 489kts
06-Oct-18 20:19 32.673611 -111.944179 119 22142ft 482kts
06-Oct-18 20:20 32.622802 -111.814401 118 18589ft 452kts
06-Oct-18 20:21 32.571299 -111.683632 118 16267ft 440kts
06-Oct-18 20:22 32.510547 -111.565899 131 13001ft 412kts
06-Oct-18 20:23 32.444049 -111.462376 130 11967ft 402kts
06-Oct-18 20:24 32.378670 -111.359218 130 11955ft 402kts
06-Oct-18 20:25 32.313418 -111.262128 133 11952ft 401kts
06-Oct-18 20:26 32.247595 -111.166467 132 11966ft 401kts
06-Oct-18 20:27 32.179004 -111.074305 146 11937ft 396kts
06-Oct-18 20:28 32.109757 -111.017694 149 10556ft 327kts
06-Oct-18 20:29 32.044999 -110.964430 149 9275ft 291kts
06-Oct-18 20:30 31.983569 -110.914081 149 7783ft 279kts
06-Oct-18 20:31 31.928915 -110.864358 122 6998ft 234kts
06-Oct-18 20:32 31.945525 -110.805116 15 6412ft 211kts
06-Oct-18 20:33 31.995035 -110.823742 330 5568ft 187kts
06-Oct-18 20:34 32.037837 -110.849282 319 4434ft 160kts
06-Oct-18 20:35 32.066797 -110.880638 309 3524ft 139kts
06-Oct-18 20:36 32.093214 -110.912334 311 2921ft 137kts
06-Oct-18 20:37 32.113686 -110.936610 316 2651ft 52kts
06-Oct-18 20:38 32.116325 -110.938731 354 2651ft 0kts
06-Oct-18 20:39 32.118516 -110.938075 324 2651ft 11kts
06-Oct-18 20:40 32.119293 -110.937739 80 2651ft 0kts
06-Oct-18 20:41 32.119293 -110.937739 80 2651ft 0kts
06-Oct-18 20:42 32.119293 -110.937739 80 2651ft 0kts
06-Oct-18 20:43 32.119293 -110.937739 80 2651ft 0kts
06-Oct-18 20:44 32.119293 -110.937739 80 2651ft 0kts
06-Oct-18 20:45 32.119293 -110.937739 80 2651ft 0kts
06-Oct-18 20:46 32.119293 -110.937739 80 2651ft 0kts
06-Oct-18 20:47 32.119293 -110.937739 80 2651ft 0kts
06-Oct-18 20:48 32.119293 -110.937739 80 2651ft 0kts
06-Oct-18 20:49 32.119293 -110.937739 80 2651ft 0kts
06-Oct-18 20:50 32.119293 -110.937739 80 2651ft 0kts
06-Oct-18 20:51 32.119293 -110.937739 80 2651ft 0kts
06-Oct-18 20:52 32.119293 -110.937739 80 2651ft 0kts

Navigation Log

Ident Type
Flight plan parsing failed, navigation log unavailable